sensor_id;sensor_type;location;lat;lon;timestamp;P1;durP1;ratioP1;P2;durP2;ratioP2
48795;SDS011;34607;48.520;-1.330;2023-02-04T12:18:17;19.08;;;11.95;;
48795;SDS011;34607;48.520;-1.330;2023-02-04T12:20:44;13.93;;;9.10;;
48795;SDS011;34607;48.520;-1.330;2023-02-04T12:23:11;10.25;;;7.50;;
48795;SDS011;34607;48.520;-1.330;2023-02-04T12:25:38;10.77;;;7.45;;
48795;SDS011;34607;48.520;-1.330;2023-02-04T12:28:05;10.27;;;6.18;;
48795;SDS011;34607;48.520;-1.330;2023-02-04T12:30:42;9.13;;;4.85;;
48795;SDS011;34607;48.520;-1.330;2023-02-04T12:33:14;9.48;;;5.22;;
48795;SDS011;34607;48.520;-1.330;2023-02-04T12:35:43;8.57;;;4.80;;
48795;SDS011;34607;48.520;-1.330;2023-02-04T12:38:10;5.57;;;4.20;;
48795;SDS011;34607;48.520;-1.330;2023-02-04T12:40:37;7.05;;;5.00;;
48795;SDS011;34607;48.520;-1.330;2023-02-04T12:43:04;6.15;;;5.30;;
48795;SDS011;34607;48.520;-1.330;2023-02-04T12:45:31;6.38;;;4.90;;
48795;SDS011;34607;48.520;-1.330;2023-02-04T12:47:59;6.30;;;4.82;;
48795;SDS011;34607;48.520;-1.330;2023-02-04T12:50:29;8.13;;;4.63;;
48795;SDS011;34607;48.520;-1.330;2023-02-04T12:52:58;9.73;;;3.90;;
48795;SDS011;34607;48.520;-1.330;2023-02-04T12:55:26;6.28;;;3.78;;
48795;SDS011;34607;48.520;-1.330;2023-02-04T12:57:54;6.07;;;4.03;;
48795;SDS011;34607;48.520;-1.330;2023-02-04T13:00:21;4.97;;;3.30;;
48795;SDS011;34607;48.520;-1.330;2023-02-04T13:02:50;9.75;;;6.40;;
48795;SDS011;34607;48.520;-1.330;2023-02-04T13:05:19;5.90;;;3.85;;
48795;SDS011;34607;48.520;-1.330;2023-02-04T13:07:46;3.40;;;3.00;;
48795;SDS011;34607;48.520;-1.330;2023-02-04T13:10:15;7.90;;;4.68;;
48795;SDS011;34607;48.520;-1.330;2023-02-04T13:12:42;6.80;;;4.18;;
48795;SDS011;34607;48.520;-1.330;2023-02-04T13:15:10;16.50;;;8.95;;
48795;SDS011;34607;48.520;-1.330;2023-02-04T13:17:37;10.15;;;5.00;;
48795;SDS011;34607;48.520;-1.330;2023-02-04T13:20:04;8.77;;;4.03;;
48795;SDS011;34607;48.520;-1.330;2023-02-04T13:22:32;6.57;;;3.47;;
48795;SDS011;34607;48.520;-1.330;2023-02-04T13:25:04;4.82;;;2.72;;
48795;SDS011;34607;48.520;-1.330;2023-02-04T13:27:34;7.03;;;4.32;;
48795;SDS011;34607;48.520;-1.330;2023-02-04T13:30:02;6.55;;;3.03;;
48795;SDS011;34607;48.520;-1.330;2023-02-04T13:32:33;5.07;;;2.85;;
48795;SDS011;34607;48.520;-1.330;2023-02-04T13:35:00;14.50;;;8.43;;
48795;SDS011;34607;48.520;-1.330;2023-02-04T13:37:27;10.70;;;7.38;;
48795;SDS011;34607;48.520;-1.330;2023-02-04T13:39:54;18.33;;;11.00;;
48795;SDS011;34607;48.520;-1.330;2023-02-04T13:42:21;7.95;;;4.75;;
48795;SDS011;34607;48.520;-1.330;2023-02-04T13:44:50;11.57;;;5.47;;
48795;SDS011;34607;48.520;-1.330;2023-02-04T13:47:18;17.85;;;11.18;;
48795;SDS011;34607;48.520;-1.330;2023-02-04T13:49:45;18.80;;;13.60;;
48795;SDS011;34607;48.520;-1.330;2023-02-04T13:52:13;18.63;;;11.20;;
48795;SDS011;34607;48.520;-1.330;2023-02-04T13:54:42;20.60;;;11.30;;
48795;SDS011;34607;48.520;-1.330;2023-02-04T13:57:09;9.85;;;6.78;;
48795;SDS011;34607;48.520;-1.330;2023-02-04T13:59:36;11.40;;;7.30;;
48795;SDS011;34607;48.520;-1.330;2023-02-04T14:02:05;10.45;;;7.10;;
48795;SDS011;34607;48.520;-1.330;2023-02-04T14:04:32;9.15;;;5.20;;
48795;SDS011;34607;48.520;-1.330;2023-02-04T14:06:59;14.05;;;6.63;;
48795;SDS011;34607;48.520;-1.330;2023-02-04T14:09:26;11.48;;;7.18;;
48795;SDS011;34607;48.520;-1.330;2023-02-04T14:11:53;12.05;;;8.68;;
48795;SDS011;34607;48.520;-1.330;2023-02-04T14:14:20;10.60;;;6.47;;
48795;SDS011;34607;48.520;-1.330;2023-02-04T14:16:47;9.07;;;3.80;;
48795;SDS011;34607;48.520;-1.330;2023-02-04T14:19:15;7.70;;;4.10;;
48795;SDS011;34607;48.520;-1.330;2023-02-04T14:21:42;12.52;;;5.72;;
48795;SDS011;34607;48.520;-1.330;2023-02-04T14:24:10;7.88;;;3.60;;
48795;SDS011;34607;48.520;-1.330;2023-02-04T14:26:37;5.70;;;3.22;;
48795;SDS011;34607;48.520;-1.330;2023-02-04T14:29:04;6.25;;;3.00;;
48795;SDS011;34607;48.520;-1.330;2023-02-04T14:31:31;7.35;;;3.97;;
48795;SDS011;34607;48.520;-1.330;2023-02-04T14:34:00;15.82;;;7.38;;
48795;SDS011;34607;48.520;-1.330;2023-02-04T14:36:29;5.45;;;2.92;;
48795;SDS011;34607;48.520;-1.330;2023-02-04T14:38:56;13.63;;;7.20;;
48795;SDS011;34607;48.520;-1.330;2023-02-04T14:41:23;19.05;;;11.25;;
48795;SDS011;34607;48.520;-1.330;2023-02-04T14:43:50;14.65;;;7.60;;
48795;SDS011;34607;48.520;-1.330;2023-02-04T14:46:19;13.13;;;5.82;;
48795;SDS011;34607;48.520;-1.330;2023-02-04T14:48:46;8.90;;;4.03;;
48795;SDS011;34607;48.520;-1.330;2023-02-04T14:51:16;7.43;;;5.18;;
48795;SDS011;34607;48.520;-1.330;2023-02-04T14:53:45;10.10;;;3.72;;
48795;SDS011;34607;48.520;-1.330;2023-02-04T14:56:12;10.52;;;4.30;;
48795;SDS011;34607;48.520;-1.330;2023-02-04T14:58:39;9.98;;;4.57;;
48795;SDS011;34607;48.520;-1.330;2023-02-04T15:01:06;8.73;;;4.65;;
48795;SDS011;34607;48.520;-1.330;2023-02-04T15:03:33;17.02;;;5.35;;
48795;SDS011;34607;48.520;-1.330;2023-02-04T15:06:00;9.82;;;5.80;;
48795;SDS011;34607;48.520;-1.330;2023-02-04T15:08:27;12.25;;;6.57;;
48795;SDS011;34607;48.520;-1.330;2023-02-04T15:10:56;8.40;;;5.65;;
48795;SDS011;34607;48.520;-1.330;2023-02-04T15:13:23;8.13;;;4.10;;
48795;SDS011;34607;48.520;-1.330;2023-02-04T15:15:50;5.85;;;3.90;;
48795;SDS011;34607;48.520;-1.330;2023-02-04T15:18:17;11.45;;;4.53;;
48795;SDS011;34607;48.520;-1.330;2023-02-04T15:20:44;8.63;;;4.40;;
48795;SDS011;34607;48.520;-1.330;2023-02-04T15:23:11;10.57;;;4.55;;
48795;SDS011;34607;48.520;-1.330;2023-02-04T15:25:39;10.32;;;3.63;;
48795;SDS011;34607;48.520;-1.330;2023-02-04T15:28:07;9.43;;;6.15;;
48795;SDS011;34607;48.520;-1.330;2023-02-04T15:30:34;11.05;;;5.22;;
48795;SDS011;34607;48.520;-1.330;2023-02-04T15:33:01;11.07;;;5.70;;
48795;SDS011;34607;48.520;-1.330;2023-02-04T15:35:29;16.27;;;7.68;;
48795;SDS011;34607;48.520;-1.330;2023-02-04T15:37:56;9.70;;;6.82;;
48795;SDS011;34607;48.520;-1.330;2023-02-04T15:40:23;12.77;;;7.55;;
48795;SDS011;34607;48.520;-1.330;2023-02-04T15:42:54;11.05;;;7.85;;
48795;SDS011;34607;48.520;-1.330;2023-02-04T15:45:22;12.60;;;6.50;;
48795;SDS011;34607;48.520;-1.330;2023-02-04T15:47:50;12.32;;;6.10;;
48795;SDS011;34607;48.520;-1.330;2023-02-04T15:50:17;10.27;;;6.30;;
48795;SDS011;34607;48.520;-1.330;2023-02-04T15:52:44;10.75;;;7.65;;
48795;SDS011;34607;48.520;-1.330;2023-02-04T15:55:11;12.50;;;8.25;;
48795;SDS011;34607;48.520;-1.330;2023-02-04T15:57:38;11.60;;;7.28;;
48795;SDS011;34607;48.520;-1.330;2023-02-04T16:00:05;11.43;;;8.07;;
48795;SDS011;34607;48.520;-1.330;2023-02-04T16:02:35;12.02;;;5.97;;
48795;SDS011;34607;48.520;-1.330;2023-02-04T16:05:02;11.48;;;6.90;;
48795;SDS011;34607;48.520;-1.330;2023-02-04T16:07:29;10.90;;;5.75;;
48795;SDS011;34607;48.520;-1.330;2023-02-04T16:09:56;11.50;;;4.30;;
48795;SDS011;34607;48.520;-1.330;2023-02-04T16:12:23;8.68;;;4.63;;
48795;SDS011;34607;48.520;-1.330;2023-02-04T16:14:50;7.03;;;4.78;;
48795;SDS011;34607;48.520;-1.330;2023-02-04T16:17:17;10.43;;;8.45;;
48795;SDS011;34607;48.520;-1.330;2023-02-04T16:19:46;12.05;;;6.95;;
48795;SDS011;34607;48.520;-1.330;2023-02-04T16:22:13;11.35;;;5.78;;
48795;SDS011;34607;48.520;-1.330;2023-02-04T16:24:40;9.25;;;4.90;;
48795;SDS011;34607;48.520;-1.330;2023-02-04T16:27:07;7.65;;;4.40;;
48795;SDS011;34607;48.520;-1.330;2023-02-04T16:29:34;10.13;;;4.95;;
48795;SDS011;34607;48.520;-1.330;2023-02-04T16:32:01;10.00;;;6.60;;
48795;SDS011;34607;48.520;-1.330;2023-02-04T16:34:28;17.42;;;7.05;;
48795;SDS011;34607;48.520;-1.330;2023-02-04T16:36:56;5.13;;;3.90;;
48795;SDS011;34607;48.520;-1.330;2023-02-04T16:39:23;7.93;;;2.05;;
48795;SDS011;34607;48.520;-1.330;2023-02-04T16:41:50;10.95;;;4.50;;
48795;SDS011;34607;48.520;-1.330;2023-02-04T16:44:19;12.18;;;3.58;;
48795;SDS011;34607;48.520;-1.330;2023-02-04T16:46:46;5.68;;;4.03;;
48795;SDS011;34607;48.520;-1.330;2023-02-04T16:49:14;11.15;;;5.57;;
48795;SDS011;34607;48.520;-1.330;2023-02-04T16:51:41;13.40;;;7.50;;
48795;SDS011;34607;48.520;-1.330;2023-02-04T16:54:10;9.43;;;5.78;;
48795;SDS011;34607;48.520;-1.330;2023-02-04T16:59:33;13.48;;;6.25;;
48795;SDS011;34607;48.520;-1.330;2023-02-04T17:02:02;9.73;;;6.85;;
48795;SDS011;34607;48.520;-1.330;2023-02-04T17:04:36;14.15;;;9.70;;
48795;SDS011;34607;48.520;-1.330;2023-02-04T17:07:29;12.43;;;6.65;;
48795;SDS011;34607;48.520;-1.330;2023-02-04T17:10:27;12.38;;;7.28;;
48795;SDS011;34607;48.520;-1.330;2023-02-04T17:13:14;10.50;;;7.65;;
48795;SDS011;34607;48.520;-1.330;2023-02-04T17:16:02;12.50;;;7.45;;
48795;SDS011;34607;48.520;-1.330;2023-02-04T17:18:30;16.95;;;9.27;;
48795;SDS011;34607;48.520;-1.330;2023-02-04T17:20:58;18.73;;;9.90;;
48795;SDS011;34607;48.520;-1.330;2023-02-04T17:23:26;23.27;;;11.43;;
48795;SDS011;34607;48.520;-1.330;2023-02-04T17:25:55;20.75;;;12.25;;
48795;SDS011;34607;48.520;-1.330;2023-02-04T17:28:22;17.90;;;11.85;;
48795;SDS011;34607;48.520;-1.330;2023-02-04T17:30:50;14.57;;;9.85;;
48795;SDS011;34607;48.520;-1.330;2023-02-04T17:33:17;14.15;;;10.85;;
48795;SDS011;34607;48.520;-1.330;2023-02-04T17:35:45;11.65;;;7.57;;
48795;SDS011;34607;48.520;-1.330;2023-02-04T17:38:12;11.05;;;6.15;;
48795;SDS011;34607;48.520;-1.330;2023-02-04T17:40:39;17.00;;;10.15;;
48795;SDS011;34607;48.520;-1.330;2023-02-04T17:43:08;18.52;;;9.40;;
48795;SDS011;34607;48.520;-1.330;2023-02-04T17:45:35;12.65;;;10.35;;
48795;SDS011;34607;48.520;-1.330;2023-02-04T17:48:02;16.70;;;12.07;;
48795;SDS011;34607;48.520;-1.330;2023-02-04T17:50:39;11.93;;;10.13;;
48795;SDS011;34607;48.520;-1.330;2023-02-04T17:53:07;11.40;;;7.00;;
48795;SDS011;34607;48.520;-1.330;2023-02-04T17:55:35;7.93;;;4.53;;
48795;SDS011;34607;48.520;-1.330;2023-02-04T17:58:06;11.85;;;6.00;;
48795;SDS011;34607;48.520;-1.330;2023-02-04T18:00:40;13.77;;;5.65;;
48795;SDS011;34607;48.520;-1.330;2023-02-04T18:03:09;15.07;;;7.30;;
48795;SDS011;34607;48.520;-1.330;2023-02-04T18:05:39;20.85;;;13.95;;
48795;SDS011;34607;48.520;-1.330;2023-02-04T18:08:11;24.27;;;13.27;;
48795;SDS011;34607;48.520;-1.330;2023-02-04T18:10:40;22.98;;;15.63;;
48795;SDS011;34607;48.520;-1.330;2023-02-04T18:13:12;29.35;;;19.10;;
48795;SDS011;34607;48.520;-1.330;2023-02-04T18:15:40;32.00;;;23.65;;
48795;SDS011;34607;48.520;-1.330;2023-02-04T18:18:13;32.53;;;25.55;;
48795;SDS011;34607;48.520;-1.330;2023-02-04T18:20:45;37.50;;;26.77;;
48795;SDS011;34607;48.520;-1.330;2023-02-04T18:23:14;30.63;;;21.85;;
48795;SDS011;34607;48.520;-1.330;2023-02-04T18:25:42;31.63;;;22.17;;
48795;SDS011;34607;48.520;-1.330;2023-02-04T18:28:12;25.35;;;20.75;;
48795;SDS011;34607;48.520;-1.330;2023-02-04T18:30:42;21.77;;;14.57;;
48795;SDS011;34607;48.520;-1.330;2023-02-04T18:33:14;14.27;;;11.85;;
48795;SDS011;34607;48.520;-1.330;2023-02-04T18:35:47;21.85;;;15.52;;
48795;SDS011;34607;48.520;-1.330;2023-02-04T18:38:20;19.45;;;15.18;;
48795;SDS011;34607;48.520;-1.330;2023-02-04T18:40:48;21.50;;;15.25;;
48795;SDS011;34607;48.520;-1.330;2023-02-04T18:43:25;22.67;;;19.55;;
48795;SDS011;34607;48.520;-1.330;2023-02-04T18:45:53;31.45;;;20.98;;
48795;SDS011;34607;48.520;-1.330;2023-02-04T18:51:22;24.10;;;18.08;;
48795;SDS011;34607;48.520;-1.330;2023-02-04T18:53:57;42.40;;;30.83;;
48795;SDS011;34607;48.520;-1.330;2023-02-04T19:02:59;27.60;;;22.20;;
48795;SDS011;34607;48.520;-1.330;2023-02-04T19:05:36;36.35;;;25.38;;
48795;SDS011;34607;48.520;-1.330;2023-02-04T19:08:14;36.47;;;27.40;;
48795;SDS011;34607;48.520;-1.330;2023-02-04T19:10:48;42.33;;;29.90;;
48795;SDS011;34607;48.520;-1.330;2023-02-04T19:13:19;42.05;;;28.63;;
48795;SDS011;34607;48.520;-1.330;2023-02-04T19:15:56;37.75;;;27.33;;
48795;SDS011;34607;48.520;-1.330;2023-02-04T19:18:26;39.00;;;28.63;;
48795;SDS011;34607;48.520;-1.330;2023-02-04T19:20:59;35.40;;;27.67;;
48795;SDS011;34607;48.520;-1.330;2023-02-04T19:23:34;32.20;;;24.20;;
48795;SDS011;34607;48.520;-1.330;2023-02-04T19:26:02;31.30;;;26.65;;
48795;SDS011;34607;48.520;-1.330;2023-02-04T19:28:50;35.17;;;25.52;;
48795;SDS011;34607;48.520;-1.330;2023-02-04T19:31:20;46.72;;;27.75;;
48795;SDS011;34607;48.520;-1.330;2023-02-04T19:33:48;36.17;;;27.95;;
48795;SDS011;34607;48.520;-1.330;2023-02-04T19:36:22;27.90;;;17.77;;
48795;SDS011;34607;48.520;-1.330;2023-02-04T19:45:23;19.15;;;14.98;;
48795;SDS011;34607;48.520;-1.330;2023-02-04T19:47:53;22.77;;;16.92;;
48795;SDS011;34607;48.520;-1.330;2023-02-04T19:50:22;28.95;;;20.52;;
48795;SDS011;34607;48.520;-1.330;2023-02-04T19:52:56;27.13;;;18.38;;
48795;SDS011;34607;48.520;-1.330;2023-02-04T19:59:24;24.52;;;18.73;;
48795;SDS011;34607;48.520;-1.330;2023-02-04T20:01:59;22.88;;;16.80;;
48795;SDS011;34607;48.520;-1.330;2023-02-04T20:04:52;21.50;;;15.93;;
48795;SDS011;34607;48.520;-1.330;2023-02-04T20:07:20;21.60;;;16.35;;
48795;SDS011;34607;48.520;-1.330;2023-02-04T20:09:52;20.05;;;15.35;;
48795;SDS011;34607;48.520;-1.330;2023-02-04T20:12:23;21.58;;;15.00;;
48795;SDS011;34607;48.520;-1.330;2023-02-04T20:14:54;19.30;;;16.08;;
48795;SDS011;34607;48.520;-1.330;2023-02-04T20:20:18;25.23;;;18.98;;
48795;SDS011;34607;48.520;-1.330;2023-02-04T20:22:51;21.02;;;16.75;;
48795;SDS011;34607;48.520;-1.330;2023-02-04T20:28:19;24.30;;;17.48;;
48795;SDS011;34607;48.520;-1.330;2023-02-04T20:30:48;27.48;;;16.73;;
48795;SDS011;34607;48.520;-1.330;2023-02-04T20:33:26;24.90;;;14.70;;
48795;SDS011;34607;48.520;-1.330;2023-02-04T20:44:49;26.05;;;17.30;;
48795;SDS011;34607;48.520;-1.330;2023-02-04T20:47:17;20.33;;;16.58;;
48795;SDS011;34607;48.520;-1.330;2023-02-04T20:49:48;21.50;;;17.58;;
48795;SDS011;34607;48.520;-1.330;2023-02-04T20:55:26;21.20;;;15.85;;
48795;SDS011;34607;48.520;-1.330;2023-02-04T20:57:57;19.88;;;15.23;;
48795;SDS011;34607;48.520;-1.330;2023-02-04T21:01:18;25.80;;;14.00;;
48795;SDS011;34607;48.520;-1.330;2023-02-04T21:07:20;26.48;;;17.70;;
48795;SDS011;34607;48.520;-1.330;2023-02-04T21:12:54;30.47;;;15.70;;
48795;SDS011;34607;48.520;-1.330;2023-02-04T21:15:25;21.77;;;13.93;;
48795;SDS011;34607;48.520;-1.330;2023-02-04T21:17:52;17.65;;;14.23;;
48795;SDS011;34607;48.520;-1.330;2023-02-04T21:20:19;20.17;;;14.23;;
48795;SDS011;34607;48.520;-1.330;2023-02-04T21:22:47;22.40;;;14.55;;
48795;SDS011;34607;48.520;-1.330;2023-02-04T21:25:14;19.80;;;14.18;;
48795;SDS011;34607;48.520;-1.330;2023-02-04T21:27:41;20.60;;;15.10;;
48795;SDS011;34607;48.520;-1.330;2023-02-04T21:30:10;21.65;;;14.98;;
48795;SDS011;34607;48.520;-1.330;2023-02-04T21:32:40;20.77;;;14.80;;
48795;SDS011;34607;48.520;-1.330;2023-02-04T21:35:07;20.75;;;13.95;;
48795;SDS011;34607;48.520;-1.330;2023-02-04T21:37:35;17.95;;;14.80;;
48795;SDS011;34607;48.520;-1.330;2023-02-04T21:40:02;21.42;;;14.82;;
48795;SDS011;34607;48.520;-1.330;2023-02-04T21:42:29;18.83;;;14.40;;
48795;SDS011;34607;48.520;-1.330;2023-02-04T21:44:57;19.00;;;13.50;;
48795;SDS011;34607;48.520;-1.330;2023-02-04T21:47:26;22.63;;;15.30;;
48795;SDS011;34607;48.520;-1.330;2023-02-04T21:49:54;17.63;;;13.85;;
48795;SDS011;34607;48.520;-1.330;2023-02-04T21:52:21;19.10;;;14.70;;
48795;SDS011;34607;48.520;-1.330;2023-02-04T21:57:38;14.98;;;12.95;;
48795;SDS011;34607;48.520;-1.330;2023-02-04T22:00:07;19.00;;;13.18;;
48795;SDS011;34607;48.520;-1.330;2023-02-04T22:02:39;15.32;;;13.32;;
48795;SDS011;34607;48.520;-1.330;2023-02-04T22:05:07;15.02;;;12.85;;
48795;SDS011;34607;48.520;-1.330;2023-02-04T22:07:35;16.50;;;13.10;;
48795;SDS011;34607;48.520;-1.330;2023-02-04T22:10:04;14.60;;;12.32;;
48795;SDS011;34607;48.520;-1.330;2023-02-04T22:12:33;16.60;;;12.40;;
48795;SDS011;34607;48.520;-1.330;2023-02-04T22:15:00;15.63;;;12.10;;
48795;SDS011;34607;48.520;-1.330;2023-02-04T22:17:46;18.13;;;13.25;;
48795;SDS011;34607;48.520;-1.330;2023-02-04T22:20:14;14.10;;;12.35;;
48795;SDS011;34607;48.520;-1.330;2023-02-04T22:22:41;13.23;;;11.82;;
48795;SDS011;34607;48.520;-1.330;2023-02-04T22:25:09;15.18;;;13.43;;
48795;SDS011;34607;48.520;-1.330;2023-02-04T22:27:37;14.63;;;12.75;;
48795;SDS011;34607;48.520;-1.330;2023-02-04T22:30:05;16.48;;;12.10;;
48795;SDS011;34607;48.520;-1.330;2023-02-04T22:32:33;15.10;;;12.15;;
48795;SDS011;34607;48.520;-1.330;2023-02-04T22:35:02;15.13;;;12.63;;
48795;SDS011;34607;48.520;-1.330;2023-02-04T22:37:29;15.93;;;12.43;;
48795;SDS011;34607;48.520;-1.330;2023-02-04T22:39:56;15.00;;;13.48;;
48795;SDS011;34607;48.520;-1.330;2023-02-04T22:42:23;16.42;;;13.10;;
48795;SDS011;34607;48.520;-1.330;2023-02-04T22:44:50;19.92;;;14.18;;
48795;SDS011;34607;48.520;-1.330;2023-02-04T22:47:17;18.17;;;13.10;;
48795;SDS011;34607;48.520;-1.330;2023-02-04T22:49:44;17.08;;;14.13;;
48795;SDS011;34607;48.520;-1.330;2023-02-04T22:52:13;16.88;;;12.45;;
48795;SDS011;34607;48.520;-1.330;2023-02-04T22:54:40;13.98;;;10.80;;
48795;SDS011;34607;48.520;-1.330;2023-02-04T22:57:08;18.50;;;11.55;;
48795;SDS011;34607;48.520;-1.330;2023-02-04T22:59:35;16.27;;;11.68;;
48795;SDS011;34607;48.520;-1.330;2023-02-04T23:02:03;15.63;;;11.98;;
48795;SDS011;34607;48.520;-1.330;2023-02-04T23:04:30;13.48;;;12.07;;
48795;SDS011;34607;48.520;-1.330;2023-02-04T23:06:57;14.70;;;11.43;;
48795;SDS011;34607;48.520;-1.330;2023-02-04T23:09:30;19.95;;;10.35;;
48795;SDS011;34607;48.520;-1.330;2023-02-04T23:11:58;12.75;;;10.68;;
48795;SDS011;34607;48.520;-1.330;2023-02-04T23:14:37;14.00;;;10.65;;
48795;SDS011;34607;48.520;-1.330;2023-02-04T23:17:09;12.52;;;10.60;;
48795;SDS011;34607;48.520;-1.330;2023-02-04T23:19:39;13.40;;;10.20;;
48795;SDS011;34607;48.520;-1.330;2023-02-04T23:22:09;13.98;;;9.52;;
48795;SDS011;34607;48.520;-1.330;2023-02-04T23:24:39;15.10;;;9.90;;
48795;SDS011;34607;48.520;-1.330;2023-02-04T23:27:07;12.65;;;9.43;;
48795;SDS011;34607;48.520;-1.330;2023-02-04T23:29:35;13.07;;;9.77;;
48795;SDS011;34607;48.520;-1.330;2023-02-04T23:32:04;10.88;;;9.68;;
48795;SDS011;34607;48.520;-1.330;2023-02-04T23:34:31;14.45;;;9.85;;
48795;SDS011;34607;48.520;-1.330;2023-02-04T23:36:58;16.08;;;10.05;;
48795;SDS011;34607;48.520;-1.330;2023-02-04T23:39:25;12.32;;;9.00;;
48795;SDS011;34607;48.520;-1.330;2023-02-04T23:41:54;11.15;;;8.65;;
48795;SDS011;34607;48.520;-1.330;2023-02-04T23:44:21;16.15;;;9.93;;
48795;SDS011;34607;48.520;-1.330;2023-02-04T23:46:48;16.85;;;10.45;;
48795;SDS011;34607;48.520;-1.330;2023-02-04T23:49:15;18.02;;;10.70;;
48795;SDS011;34607;48.520;-1.330;2023-02-04T23:51:42;14.10;;;10.73;;
48795;SDS011;34607;48.520;-1.330;2023-02-04T23:54:10;14.77;;;10.93;;
48795;SDS011;34607;48.520;-1.330;2023-02-04T23:56:37;15.75;;;10.68;;
48795;SDS011;34607;48.520;-1.330;2023-02-04T23:59:06;15.73;;;9.82;;
